Time;durP1;ratioP1;P1;durP2;ratioP2;P2;SDS_P1;SDS_P2;PMS_P1;PMS_P2;Temp;Humidity;BMP_temperature;BMP_pressure;BME280_temperature;BME280_humidity;BME280_pressure;Samples;Min_cycle;Max_cycle;Signal;HPM_P1;HPM_P2
2024/01/05 00:00:57;;;;;;;14.15;5.20;;;;;;;6.97;86.83;97288.19;4953933;29;20086;-71
2024/01/05 00:03:22;;;;;;;11.55;4.22;;;;;;;6.97;87.15;97298.88;4934003;29;20031;-72
2024/01/05 00:05:47;;;;;;;11.57;4.55;;;;;;;6.90;86.95;97271.47;4936616;29;20519;-72
2024/01/05 00:08:13;;;;;;;10.68;4.93;;;;;;;6.88;86.79;97272.75;4950324;29;20063;-72
2024/01/05 00:10:38;;;;;;;12.65;5.38;;;;;;;6.98;87.47;97297.00;4936786;29;20047;-72
2024/01/05 00:13:03;;;;;;;11.73;4.25;;;;;;;7.00;86.70;97286.06;4931560;29;20046;-72
2024/01/05 00:15:29;;;;;;;12.05;4.28;;;;;;;7.00;86.86;97296.78;4933523;29;20613;-71
2024/01/05 00:17:54;;;;;;;12.00;4.38;;;;;;;7.00;87.28;97286.06;4946863;29;20034;-72
2024/01/05 00:20:20;;;;;;;13.82;4.53;;;;;;;7.05;86.69;97288.81;4932525;29;20089;-72
2024/01/05 00:22:45;;;;;;;8.63;3.80;;;;;;;7.08;87.24;97291.81;4942862;28;20400;-72
2024/01/05 00:25:11;;;;;;;12.68;4.45;;;;;;;7.11;87.23;97290.50;4948224;29;20039;-72
2024/01/05 00:27:36;;;;;;;10.02;4.03;;;;;;;7.11;86.86;97279.81;4933492;29;20028;-72
2024/01/05 00:30:03;;;;;;;11.13;4.57;;;;;;;7.04;87.01;97271.13;4936369;29;20046;-72
2024/01/05 00:32:28;;;;;;;11.65;4.45;;;;;;;7.12;87.71;97276.09;4947317;29;20020;-73
2024/01/05 00:34:54;;;;;;;12.77;4.22;;;;;;;7.04;87.14;97261.25;4945202;28;20084;-73
2024/01/05 00:37:19;;;;;;;9.48;4.20;;;;;;;7.04;86.49;97263.09;4950863;29;20063;-72
2024/01/05 00:39:46;;;;;;;10.68;3.65;;;;;;;7.13;87.26;97266.97;4935344;29;20046;-72
2024/01/05 00:42:11;;;;;;;12.88;4.20;;;;;;;7.13;87.59;97267.78;4927606;29;20122;-72
2024/01/05 00:44:36;;;;;;;10.07;4.05;;;;;;;6.92;86.39;97213.16;4948386;29;20091;-73
2024/01/05 00:47:02;;;;;;;9.85;3.80;;;;;;;7.16;86.13;97253.13;4930533;29;20027;-73
2024/01/05 00:49:27;;;;;;;9.60;4.63;;;;;;;7.16;87.08;97255.78;4935967;29;20031;-72
2024/01/05 00:51:53;;;;;;;7.78;3.60;;;;;;;7.19;86.61;97236.56;4928150;29;20570;-72
2024/01/05 00:54:18;;;;;;;9.75;4.03;;;;;;;7.17;86.73;97234.13;4951825;29;20119;-73
2024/01/05 00:56:43;;;;;;;9.00;3.97;;;;;;;7.15;86.72;97235.41;4917213;29;20050;-71
2024/01/05 00:59:11;;;;;;;9.13;4.05;;;;;;;7.07;86.91;97223.25;4947414;29;20043;-72
2024/01/05 01:01:36;;;;;;;12.32;4.53;;;;;;;7.16;87.35;97232.50;4952411;29;20023;-72
2024/01/05 01:04:02;;;;;;;11.45;4.43;;;;;;;7.09;86.31;97226.53;4952765;29;20542;-72
2024/01/05 01:06:27;;;;;;;9.15;4.38;;;;;;;7.11;86.34;97221.72;4944830;29;20023;-72
2024/01/05 01:08:53;;;;;;;8.73;4.38;;;;;;;7.10;87.39;97216.59;4951679;29;20084;-72
2024/01/05 01:11:18;;;;;;;10.40;4.28;;;;;;;7.03;87.07;97210.59;4943692;29;20490;-72
2024/01/05 01:13:44;;;;;;;13.68;4.32;;;;;;;6.93;86.69;97195.25;4952806;28;20035;-72
2024/01/05 01:16:11;;;;;;;9.30;4.15;;;;;;;7.00;86.81;97205.78;4952552;29;20085;-73
2024/01/05 01:18:37;;;;;;;9.82;4.78;;;;;;;6.96;86.78;97190.19;4929973;29;20122;-72
2024/01/05 01:21:02;;;;;;;12.25;4.32;;;;;;;6.95;87.06;97190.44;4935669;29;20051;-72
2024/01/05 01:23:28;;;;;;;12.43;4.22;;;;;;;6.81;86.62;97176.56;4919675;29;20039;-72
2024/01/05 01:25:53;;;;;;;9.00;4.55;;;;;;;6.78;86.98;97176.28;4919559;29;20031;-71
2024/01/05 01:28:18;;;;;;;9.98;4.32;;;;;;;6.75;86.40;97161.50;4931517;29;20098;-71
2024/01/05 01:30:44;;;;;;;13.18;4.03;;;;;;;6.70;86.05;97165.97;4934987;29;20034;-71
2024/01/05 01:33:09;;;;;;;9.43;4.45;;;;;;;6.79;87.29;97178.69;4930502;29;20031;-71
2024/01/05 01:35:34;;;;;;;11.32;4.78;;;;;;;6.78;86.81;97187.78;4948953;29;20035;-71
2024/01/05 01:38:00;;;;;;;7.32;3.65;;;;;;;6.78;86.66;97197.69;4952620;29;20059;-73
2024/01/05 01:40:26;;;;;;;11.93;4.00;;;;;;;6.62;86.11;97166.41;4919516;29;20041;-74
2024/01/05 01:42:52;;;;;;;10.15;4.50;;;;;;;6.66;86.43;97173.69;4935290;28;20032;-73
2024/01/05 01:45:17;;;;;;;12.00;4.28;;;;;;;6.73;86.48;97182.34;4933027;29;20114;-72
2024/01/05 01:47:44;;;;;;;12.15;4.32;;;;;;;6.70;86.52;97161.44;4944733;29;20046;-72
2024/01/05 01:50:10;;;;;;;11.88;4.32;;;;;;;6.46;86.13;97121.75;4952428;29;20050;-72
2024/01/05 01:52:36;;;;;;;10.50;3.88;;;;;;;6.70;87.03;97169.47;4942187;29;20476;-71
2024/01/05 01:55:02;;;;;;;12.90;4.10;;;;;;;6.71;86.07;97147.00;4930942;29;20047;-71
2024/01/05 01:57:28;;;;;;;10.20;4.85;;;;;;;6.69;86.64;97146.44;4935224;29;20058;-71
2024/01/05 01:59:53;;;;;;;13.05;4.13;;;;;;;6.56;86.55;97130.72;4930241;29;20027;-71
2024/01/05 02:02:18;;;;;;;8.13;4.00;;;;;;;6.57;86.81;97132.34;4935128;29;20027;-71
2024/01/05 02:04:46;;;;;;;11.05;4.00;;;;;;;6.69;85.89;97141.09;4944568;28;20372;-71
2024/01/05 02:07:12;;;;;;;11.32;4.13;;;;;;;6.71;86.58;97133.63;4948393;29;20139;-72
2024/01/05 02:09:39;;;;;;;10.75;3.65;;;;;;;6.64;85.79;97133.00;4943338;29;20080;-72
2024/01/05 02:12:05;;;;;;;12.38;3.90;;;;;;;6.66;85.94;97130.88;4932511;29;20039;-72
2024/01/05 02:14:30;;;;;;;8.88;3.72;;;;;;;6.68;85.60;97123.41;4952294;28;20035;-72
2024/01/05 02:16:56;;;;;;;12.38;4.30;;;;;;;6.67;86.86;97126.34;4938823;29;20035;-72
2024/01/05 02:19:21;;;;;;;8.75;3.80;;;;;;;6.65;85.80;97113.19;4934262;29;20384;-72
2024/01/05 02:21:50;;;;;;;12.18;4.00;;;;;;;6.57;85.22;97084.22;4947433;29;20047;-72
2024/01/05 02:24:15;;;;;;;6.88;3.42;;;;;;;6.69;85.51;97100.97;4933019;29;20127;-72
2024/01/05 02:26:40;;;;;;;13.48;4.25;;;;;;;6.69;86.01;97102.84;4953445;29;20111;-72
2024/01/05 02:29:06;;;;;;;8.50;3.40;;;;;;;6.69;85.31;97102.84;4919679;29;20081;-73
2024/01/05 02:31:31;;;;;;;8.63;3.28;;;;;;;6.72;85.71;97097.00;4954074;29;20027;-73
2024/01/05 02:33:56;;;;;;;7.47;3.10;;;;;;;6.65;84.81;97081.09;4926929;29;20032;-74
2024/01/05 02:36:22;;;;;;;12.90;3.25;;;;;;;6.72;85.56;97102.34;4948147;29;20031;-70
2024/01/05 02:38:47;;;;;;;9.32;3.90;;;;;;;6.76;84.37;97098.13;4938465;29;20031;-73
2024/01/05 02:41:13;;;;;;;9.75;3.35;;;;;;;6.62;84.30;97062.88;4938505;29;20062;-72
2024/01/05 02:43:38;;;;;;;13.88;3.88;;;;;;;6.67;84.94;97067.50;4929308;29;20119;-72
2024/01/05 02:46:03;;;;;;;8.55;3.15;;;;;;;6.58;84.80;97061.75;4917414;29;20504;-73
2024/01/05 02:48:29;;;;;;;7.32;3.17;;;;;;;6.69;85.43;97082.25;4938432;29;20027;-72
2024/01/05 02:50:54;;;;;;;9.68;3.15;;;;;;;6.76;85.22;97085.56;4932265;29;20031;-71
2024/01/05 02:53:20;;;;;;;8.10;3.40;;;;;;;6.70;84.56;97078.50;4921325;29;20487;-73
2024/01/05 02:55:45;;;;;;;9.55;3.22;;;;;;;6.76;83.92;97087.41;4947191;29;20038;-70
2024/01/05 02:58:10;;;;;;;8.10;3.05;;;;;;;6.76;83.99;97090.91;4951164;29;20039;-72
2024/01/05 03:00:36;;;;;;;7.22;3.38;;;;;;;6.68;84.33;97066.44;4919732;29;20499;-72
2024/01/05 03:03:03;;;;;;;10.07;3.50;;;;;;;6.74;84.02;97084.19;4954918;29;20399;-70
2024/01/05 03:05:29;;;;;;;6.97;2.78;;;;;;;6.75;84.17;97086.59;4947932;29;20404;-72
2024/01/05 03:07:54;;;;;;;7.18;3.00;;;;;;;6.73;83.90;97088.72;4914201;29;20033;-72
2024/01/05 03:10:19;;;;;;;12.63;3.30;;;;;;;6.63;83.87;97083.22;4935714;29;20054;-71
2024/01/05 03:12:45;;;;;;;7.55;2.67;;;;;;;6.67;84.34;97094.25;4946715;29;20031;-71
2024/01/05 03:15:10;;;;;;;6.78;2.92;;;;;;;6.65;83.72;97091.81;4936839;29;20046;-73
2024/01/05 03:17:36;;;;;;;11.27;2.88;;;;;;;6.64;83.28;97094.72;4954231;29;20106;-73
2024/01/05 03:20:01;;;;;;;8.25;3.08;;;;;;;6.60;83.60;97082.91;4933892;29;20690;-71
2024/01/05 03:22:27;;;;;;;7.82;3.33;;;;;;;6.59;83.65;97092.78;4928185;29;20031;-73
2024/01/05 03:24:52;;;;;;;7.28;3.25;;;;;;;6.58;83.36;97087.72;4920965;29;20388;-71
2024/01/05 03:27:17;;;;;;;6.25;3.05;;;;;;;6.53;83.24;97083.09;4953520;29;20106;-72
2024/01/05 03:29:43;;;;;;;10.50;3.13;;;;;;;6.53;84.25;97077.75;4953079;29;20039;-72
2024/01/05 03:32:09;;;;;;;8.00;2.92;;;;;;;6.39;84.02;97059.63;4954687;29;20480;-72
2024/01/05 03:34:34;;;;;;;6.03;2.80;;;;;;;6.49;84.21;97063.22;4940151;29;20039;-71
2024/01/05 03:37:00;;;;;;;5.43;2.78;;;;;;;6.49;83.35;97044.50;4937105;29;20584;-71
2024/01/05 03:39:25;;;;;;;9.40;2.90;;;;;;;6.47;83.17;97024.41;4936687;29;20047;-71
2024/01/05 03:41:50;;;;;;;8.98;3.00;;;;;;;6.44;83.86;97011.56;4931846;29;20031;-71
2024/01/05 03:44:22;;;;;;;10.13;3.60;;;;;;;6.43;83.91;97017.94;4930066;29;20067;-71
2024/01/05 03:46:48;;;;;;;5.95;2.88;;;;;;;6.45;84.20;97032.69;4931133;29;20035;-73
2024/01/05 03:49:14;;;;;;;4.90;2.85;;;;;;;6.34;83.75;97020.25;4926319;29;20027;-73
2024/01/05 03:51:39;;;;;;;7.70;3.22;;;;;;;6.28;84.86;97022.03;4934429;29;20098;-73
2024/01/05 03:54:05;;;;;;;7.03;3.10;;;;;;;6.35;84.42;97026.41;4950775;28;20027;-72
2024/01/05 03:56:40;;;;;;;8.63;3.15;;;;;;;6.36;83.99;97020.81;4928743;29;20440;-72
2024/01/05 03:59:06;;;;;;;10.70;3.58;;;;;;;6.43;83.75;97040.16;4930187;28;20051;-72
2024/01/05 04:01:33;;;;;;;9.50;3.40;;;;;;;6.39;84.29;97023.00;4940738;29;20094;-72
2024/01/05 04:03:58;;;;;;;11.75;3.45;;;;;;;6.30;84.20;97007.63;4940739;29;20047;-72
2024/01/05 04:06:24;;;;;;;8.05;2.90;;;;;;;6.35;84.74;97013.03;4933165;29;20031;-72
2024/01/05 04:08:51;;;;;;;9.75;3.33;;;;;;;6.34;85.06;97004.19;4935946;29;20043;-72
2024/01/05 04:11:20;;;;;;;9.25;3.85;;;;;;;6.37;84.45;97000.22;4952389;29;20090;-72
2024/01/05 04:13:49;;;;;;;8.15;3.53;;;;;;;6.28;83.84;96984.59;4936373;29;20078;-72
2024/01/05 04:16:14;;;;;;;8.80;3.60;;;;;;;6.23;83.57;96981.06;4953755;29;20394;-73
2024/01/05 04:18:40;;;;;;;7.75;3.33;;;;;;;6.32;84.51;96984.94;4938598;29;20106;-73
2024/01/05 04:21:05;;;;;;;7.07;3.15;;;;;;;6.22;83.67;96980.25;4930082;29;20028;-73
2024/01/05 04:23:31;;;;;;;11.82;3.83;;;;;;;6.21;84.22;96985.81;4948718;28;20491;-72
2024/01/05 04:25:56;;;;;;;8.18;3.25;;;;;;;6.25;84.05;97005.69;4946377;29;20488;-71
2024/01/05 04:28:22;;;;;;;7.00;3.55;;;;;;;6.28;83.96;96999.81;4929785;29;20376;-71
2024/01/05 04:30:47;;;;;;;8.45;3.55;;;;;;;6.24;83.78;97009.41;4953509;28;20027;-71
2024/01/05 04:33:13;;;;;;;10.63;4.03;;;;;;;6.17;84.70;97003.41;4948287;28;20531;-72
2024/01/05 04:35:38;;;;;;;7.15;3.50;;;;;;;6.22;84.52;97006.97;4932318;29;20086;-71
2024/01/05 04:38:03;;;;;;;7.90;3.78;;;;;;;6.17;84.83;97003.41;4952285;29;20051;-71
2024/01/05 04:40:29;;;;;;;7.97;3.50;;;;;;;6.15;83.81;97000.19;4934982;29;20027;-71
2024/01/05 04:42:54;;;;;;;9.20;4.03;;;;;;;6.12;84.46;96993.47;4928774;29;20031;-71
2024/01/05 04:45:20;;;;;;;8.05;3.42;;;;;;;6.15;84.14;96994.84;4947076;29;20487;-73
2024/01/05 04:47:48;;;;;;;8.57;3.63;;;;;;;6.11;84.56;96994.50;4925229;29;20110;-72
2024/01/05 04:50:13;;;;;;;7.38;3.25;;;;;;;6.10;84.88;96992.09;4931621;29;20109;-72
2024/01/05 04:52:39;;;;;;;8.63;3.42;;;;;;;6.05;83.79;96984.00;4936206;29;20110;-71
2024/01/05 04:55:04;;;;;;;9.73;3.30;;;;;;;5.88;84.99;96961.84;4951673;29;20484;-73
2024/01/05 04:57:30;;;;;;;7.57;3.10;;;;;;;6.04;84.19;96987.72;4933412;29;20039;-72
2024/01/05 04:59:55;;;;;;;13.30;3.50;;;;;;;6.07;83.81;96996.06;4947495;29;20042;-72
2024/01/05 05:02:21;;;;;;;8.73;3.60;;;;;;;6.00;84.04;96981.25;4937877;28;20491;-72
2024/01/05 05:04:46;;;;;;;5.20;3.05;;;;;;;6.02;84.29;96982.63;4949062;28;20027;-72
2024/01/05 05:07:11;;;;;;;6.13;3.13;;;;;;;6.00;84.16;96982.06;4936031;29;20456;-72
2024/01/05 05:09:37;;;;;;;6.65;3.15;;;;;;;6.06;83.43;96989.09;4935710;29;20023;-72
2024/01/05 05:12:03;;;;;;;7.57;3.08;;;;;;;6.01;83.55;96966.84;4936010;29;20061;-72
2024/01/05 05:14:29;;;;;;;6.75;3.00;;;;;;;6.00;83.59;96965.22;4933726;29;20019;-72
2024/01/05 05:16:54;;;;;;;8.57;3.20;;;;;;;5.81;83.90;96939.81;4935204;29;20380;-72
2024/01/05 05:19:19;;;;;;;8.02;2.92;;;;;;;6.03;84.00;96980.75;4933576;29;20668;-72
2024/01/05 05:21:45;;;;;;;7.50;3.58;;;;;;;6.05;83.32;96978.66;4952732;29;20118;-72
2024/01/05 05:24:11;;;;;;;8.13;3.53;;;;;;;5.99;83.80;96968.94;4945533;28;20024;-72
2024/01/05 05:26:37;;;;;;;8.68;3.65;;;;;;;6.03;83.11;96975.41;4917251;29;20039;-72
2024/01/05 05:29:02;;;;;;;7.28;3.03;;;;;;;5.82;84.14;96952.09;4927829;29;20043;-72
2024/01/05 05:31:27;;;;;;;6.82;3.75;;;;;;;5.94;83.96;96976.88;4935532;29;20118;-72
2024/01/05 05:33:53;;;;;;;9.07;3.35;;;;;;;5.94;83.03;96977.69;4954324;28;20019;-71
2024/01/05 05:36:18;;;;;;;9.93;6.03;;;;;;;5.85;83.55;96962.31;4932485;29;20050;-72
2024/01/05 05:38:43;;;;;;;12.63;4.47;;;;;;;5.78;84.04;96950.97;4935450;29;20031;-72
2024/01/05 05:41:09;;;;;;;6.07;2.95;;;;;;;5.86;84.10;96963.97;4952666;29;20114;-72
2024/01/05 05:43:36;;;;;;;7.00;3.42;;;;;;;5.74;84.15;96949.84;4934981;29;20050;-71
2024/01/05 05:46:01;;;;;;;7.65;3.30;;;;;;;5.84;83.56;96960.66;4953304;28;20074;-72
2024/01/05 05:48:27;;;;;;;7.18;3.38;;;;;;;5.84;83.69;96966.84;4954048;29;20066;-71
2024/01/05 05:50:52;;;;;;;6.85;3.10;;;;;;;5.81;83.35;96966.53;4955959;29;20582;-71
2024/01/05 05:53:17;;;;;;;8.90;3.60;;;;;;;5.78;83.61;96973.16;4955015;29;20106;-70
2024/01/05 05:55:43;;;;;;;9.65;3.33;;;;;;;5.80;83.28;96980.91;4956103;29;20043;-71
2024/01/05 05:58:08;;;;;;;7.18;3.58;;;;;;;5.77;83.85;96981.38;4953924;29;20051;-71
2024/01/05 06:00:35;;;;;;;5.97;3.45;;;;;;;5.75;84.13;96978.16;4935505;29;20050;-71
2024/01/05 06:03:01;;;;;;;9.30;3.28;;;;;;;5.79;83.18;96973.97;4952345;29;20586;-70
2024/01/05 06:05:26;;;;;;;8.00;3.40;;;;;;;5.80;82.96;96980.91;4938971;29;20114;-71
2024/01/05 06:07:52;;;;;;;9.70;3.38;;;;;;;5.81;84.03;96993.22;4938994;29;20059;-70
2024/01/05 06:10:17;;;;;;;7.97;3.17;;;;;;;5.78;83.47;96977.69;4936375;29;20550;-70
2024/01/05 06:12:42;;;;;;;7.47;3.25;;;;;;;5.82;83.46;96979.63;4932543;28;20019;-70
2024/01/05 06:15:08;;;;;;;10.00;3.15;;;;;;;5.70;83.93;96954.03;4938577;29;20118;-70
2024/01/05 06:17:34;;;;;;;9.85;3.60;;;;;;;5.85;84.26;96973.00;4929973;29;20533;-71
2024/01/05 06:19:59;;;;;;;7.15;3.33;;;;;;;5.86;83.77;96969.31;4956124;29;20082;-72
2024/01/05 06:22:24;;;;;;;6.38;3.55;;;;;;;5.84;83.88;96966.00;4951162;29;20053;-72
2024/01/05 06:24:50;;;;;;;5.97;2.80;;;;;;;5.90;83.41;96975.75;4948353;28;20047;-72
2024/01/05 06:27:15;;;;;;;9.00;4.20;;;;;;;5.89;83.68;96979.47;4935906;29;20163;-72
2024/01/05 06:29:41;;;;;;;9.10;3.75;;;;;;;5.83;83.99;96975.09;4929594;29;20091;-71
2024/01/05 06:32:06;;;;;;;11.02;3.45;;;;;;;5.79;83.14;96973.97;4938656;29;20476;-72
2024/01/05 06:34:32;;;;;;;6.63;3.42;;;;;;;5.65;84.12;96960.13;4930108;29;20035;-72
2024/01/05 06:36:57;;;;;;;7.45;3.20;;;;;;;5.85;83.91;96994.38;4920972;29;20031;-72
2024/01/05 06:39:23;;;;;;;5.20;3.13;;;;;;;5.76;83.44;96977.13;4944502;29;20047;-72
2024/01/05 06:41:48;;;;;;;7.45;3.20;;;;;;;5.86;84.18;96993.34;4949474;29;20023;-71
2024/01/05 06:44:14;;;;;;;7.35;3.25;;;;;;;5.87;83.42;96976.25;4935071;29;20035;-72
2024/01/05 06:46:39;;;;;;;14.90;7.20;;;;;;;5.86;83.55;96974.66;4940831;29;20395;-71
2024/01/05 06:49:05;;;;;;;6.32;3.80;;;;;;;5.87;83.09;96971.72;4954382;29;20512;-71
2024/01/05 06:51:40;;;;;;;10.35;3.97;;;;;;;5.86;82.97;96962.06;4932449;29;20036;-72
2024/01/05 06:54:05;;;;;;;6.80;4.13;;;;;;;5.79;83.57;96968.63;4931458;29;20175;-72
2024/01/05 06:56:32;;;;;;;5.40;3.42;;;;;;;5.91;83.63;96972.03;4952105;29;20031;-72
2024/01/05 06:59:03;;;;;;;7.72;3.40;;;;;;;5.84;83.46;96952.66;4927369;29;20046;-72
2024/01/05 07:01:28;;;;;;;6.90;3.80;;;;;;;5.75;83.22;96948.78;4951737;29;20039;-72
2024/01/05 07:03:54;;;;;;;8.30;3.92;;;;;;;5.91;82.98;96972.84;4931734;29;20509;-72
2024/01/05 07:06:19;;;;;;;7.88;3.75;;;;;;;5.92;82.46;96974.47;4921199;29;20047;-72
2024/01/05 07:08:45;;;;;;;8.82;3.78;;;;;;;5.89;83.40;96966.13;4947897;29;20035;-72
2024/01/05 07:11:19;;;;;;;4.93;3.15;;;;;;;5.93;82.63;96964.56;4933595;29;20488;-71
2024/01/05 07:13:45;;;;;;;6.78;3.28;;;;;;;5.87;83.55;96962.88;4952912;28;20483;-71
2024/01/05 07:16:20;;;;;;;5.45;3.00;;;;;;;5.85;82.76;96951.63;4948188;29;20024;-71
2024/01/05 07:18:47;;;;;;;8.02;3.33;;;;;;;5.79;83.36;96947.25;4936303;29;20419;-71
2024/01/05 07:21:13;;;;;;;7.60;3.33;;;;;;;5.92;82.43;96955.78;4933634;29;20031;-71
2024/01/05 07:23:39;;;;;;;7.43;3.88;;;;;;;5.92;82.08;96963.78;4932632;29;20117;-71
2024/01/05 07:26:04;;;;;;;6.07;3.65;;;;;;;5.93;82.27;96972.59;4931410;29;20659;-71
2024/01/05 07:28:29;;;;;;;7.18;3.50;;;;;;;5.65;82.89;96940.63;4934190;29;20043;-72
2024/01/05 07:30:55;;;;;;;5.75;3.55;;;;;;;5.88;82.65;96972.53;4953626;29;20027;-71
2024/01/05 07:33:20;;;;;;;7.70;3.25;;;;;;;5.89;82.04;96976.81;4932430;29;20175;-71
2024/01/05 07:35:45;;;;;;;7.53;3.58;;;;;;;5.83;82.33;96975.91;4913631;29;20476;-72
2024/01/05 07:38:11;;;;;;;8.10;3.47;;;;;;;5.76;82.09;96971.78;4954676;29;20035;-74
2024/01/05 07:40:36;;;;;;;9.45;3.42;;;;;;;5.84;82.52;96984.72;4936367;29;20498;-72
2024/01/05 07:43:02;;;;;;;10.05;3.78;;;;;;;5.63;82.34;96954.22;4954358;28;20058;-72
2024/01/05 07:45:28;;;;;;;8.05;3.75;;;;;;;5.80;82.74;96980.91;4952015;29;20019;-72
2024/01/05 07:47:55;;;;;;;6.32;3.72;;;;;;;5.78;82.59;96983.03;4946496;29;20070;-72
2024/01/05 07:50:21;;;;;;;6.53;3.70;;;;;;;5.81;82.16;96977.19;4937617;29;20027;-72
2024/01/05 07:52:46;;;;;;;6.53;3.10;;;;;;;5.76;82.30;96974.44;4947535;28;20030;-70
2024/01/05 07:55:11;;;;;;;6.55;3.70;;;;;;;5.82;82.06;96984.16;4936975;29;20480;-72
2024/01/05 07:57:37;;;;;;;8.27;3.30;;;;;;;5.61;81.59;96961.66;4923816;29;20446;-74
2024/01/05 08:00:02;;;;;;;6.47;3.47;;;;;;;5.79;82.07;96982.78;4934101;29;20368;-74
2024/01/05 08:02:30;;;;;;;8.55;3.47;;;;;;;5.74;82.41;96971.22;4933984;29;20121;-72
2024/01/05 08:04:55;;;;;;;8.00;3.70;;;;;;;5.80;81.65;96959.53;4947256;29;20541;-72
2024/01/05 08:07:21;;;;;;;7.95;3.53;;;;;;;5.92;81.73;96973.66;4947960;29;20042;-73
2024/01/05 08:09:52;;;;;;;6.57;3.60;;;;;;;5.97;81.75;96976.41;4942655;29;20023;-72
2024/01/05 08:12:18;;;;;;;6.97;3.85;;;;;;;5.97;80.96;96971.88;4932698;29;20039;-72
2024/01/05 08:14:43;;;;;;;6.35;3.60;;;;;;;5.93;82.09;96959.22;4950032;29;20034;-73
2024/01/05 08:17:09;;;;;;;8.90;3.72;;;;;;;6.02;81.85;96971.13;4925172;29;20051;-74
2024/01/05 08:19:34;;;;;;;7.32;3.17;;;;;;;5.92;81.49;96952.28;4933002;29;20031;-73
2024/01/05 08:22:00;;;;;;;9.30;3.20;;;;;;;6.01;81.30;96956.97;4954148;29;20039;-73
2024/01/05 08:24:26;;;;;;;7.90;3.63;;;;;;;6.11;80.97;96956.31;4953657;28;20023;-73
2024/01/05 08:26:51;;;;;;;8.85;3.53;;;;;;;5.89;81.39;96934.06;4920689;29;20042;-73
2024/01/05 08:29:17;;;;;;;7.95;4.13;;;;;;;6.12;81.42;96958.72;4950074;29;20023;-73
2024/01/05 08:31:43;;;;;;;8.52;3.60;;;;;;;6.13;81.28;96954.19;4936696;29;20431;-73
2024/01/05 08:34:08;;;;;;;6.68;3.35;;;;;;;6.19;81.27;96959.34;4953518;28;20644;-73
2024/01/05 08:36:34;;;;;;;7.22;3.40;;;;;;;6.14;80.80;96945.09;4936417;29;20043;-73
2024/01/05 08:38:59;;;;;;;7.85;3.50;;;;;;;6.29;80.06;96964.03;4936476;29;20411;-73
2024/01/05 08:41:24;;;;;;;9.02;3.55;;;;;;;6.31;80.28;96977.13;4936413;29;20038;-73
2024/01/05 08:43:51;;;;;;;9.95;4.10;;;;;;;6.38;80.69;96973.22;4947101;29;20043;-73
2024/01/05 08:46:17;;;;;;;9.55;4.35;;;;;;;6.51;80.53;96975.53;4948087;29;20042;-73
2024/01/05 08:48:43;;;;;;;10.15;4.10;;;;;;;6.55;79.80;96963.31;4931244;29;20031;-73
2024/01/05 08:51:08;;;;;;;7.07;3.78;;;;;;;6.65;79.79;96962.63;4920503;29;20105;-73
2024/01/05 08:53:34;;;;;;;8.68;4.85;;;;;;;6.67;79.47;96955.97;4931612;29;20094;-73
2024/01/05 08:55:59;;;;;;;6.30;3.40;;;;;;;6.82;79.63;96958.78;4935967;29;20043;-74
2024/01/05 08:58:24;;;;;;;6.03;3.28;;;;;;;6.76;79.08;96943.75;4953257;29;20035;-73
2024/01/05 09:00:50;;;;;;;7.25;3.45;;;;;;;7.01;79.25;96967.28;4953171;29;20039;-74
2024/01/05 09:03:15;;;;;;;5.47;3.30;;;;;;;7.10;78.19;96960.44;4931954;29;20395;-73
2024/01/05 09:05:41;;;;;;;6.43;2.90;;;;;;;7.14;78.11;96966.88;4927831;29;20040;-73
2024/01/05 09:08:06;;;;;;;6.88;2.90;;;;;;;7.20;77.50;96959.72;4936229;29;20019;-73
2024/01/05 09:10:33;;;;;;;8.40;3.20;;;;;;;7.26;76.73;96964.88;4928132;29;20118;-75
2024/01/05 09:12:59;;;;;;;7.38;2.90;;;;;;;7.31;77.09;96964.09;4949834;29;20527;-72
2024/01/05 09:15:25;;;;;;;4.72;2.55;;;;;;;7.36;77.37;96961.47;4952811;29;20046;-70
2024/01/05 09:17:51;;;;;;;5.22;2.47;;;;;;;7.38;76.51;96962.03;4933503;29;20620;-73
2024/01/05 09:20:16;;;;;;;6.10;3.10;;;;;;;7.30;76.01;96959.81;4929662;29;20562;-73
2024/01/05 09:22:42;;;;;;;6.72;3.17;;;;;;;7.34;76.44;96972.47;4927474;28;20023;-73
2024/01/05 09:25:08;;;;;;;5.43;2.80;;;;;;;7.20;75.96;96965.06;4935435;29;20114;-73
2024/01/05 09:27:33;;;;;;;6.18;2.90;;;;;;;7.17;76.11;96966.38;4934060;29;20027;-73
2024/01/05 09:29:59;;;;;;;5.63;2.70;;;;;;;7.19;76.12;96980.31;4930406;29;20072;-72
2024/01/05 09:32:25;;;;;;;6.82;3.00;;;;;;;7.10;76.15;96965.78;4938565;28;20026;-73
2024/01/05 09:34:50;;;;;;;8.60;3.50;;;;;;;7.27;75.86;96989.78;4935154;29;20035;-73
2024/01/05 09:37:16;;;;;;;7.43;3.30;;;;;;;7.18;75.59;96977.91;4931422;29;20423;-74
2024/01/05 09:39:42;;;;;;;6.88;2.72;;;;;;;7.27;75.14;96973.72;4942900;29;20050;-72
2024/01/05 09:42:08;;;;;;;6.93;2.65;;;;;;;7.17;75.22;96944.97;4926418;29;20024;-73
2024/01/05 09:44:34;;;;;;;7.00;3.20;;;;;;;7.43;74.30;96975.47;4924198;29;20118;-73
2024/01/05 09:47:00;;;;;;;4.40;2.55;;;;;;;7.23;74.51;96953.88;4932903;29;20119;-73
2024/01/05 09:49:25;;;;;;;5.97;2.55;;;;;;;7.42;75.08;96974.66;4928379;29;20068;-73
2024/01/05 09:51:51;;;;;;;7.32;2.95;;;;;;;7.43;74.56;96976.28;4913470;29;20028;-73
2024/01/05 09:54:17;;;;;;;5.20;2.83;;;;;;;7.44;74.29;96969.06;4929321;29;20031;-73
2024/01/05 09:56:46;;;;;;;6.93;2.90;;;;;;;7.52;74.22;96968.59;4931615;29;20488;-73
2024/01/05 09:59:11;;;;;;;3.67;2.45;;;;;;;7.59;74.24;96966.50;4929789;29;20039;-73
2024/01/05 10:01:37;;;;;;;6.55;2.55;;;;;;;7.50;74.11;96949.28;4943776;29;20031;-73
2024/01/05 10:04:02;;;;;;;4.55;2.40;;;;;;;7.61;73.68;96956.34;4923884;29;20063;-73
2024/01/05 10:06:30;;;;;;;5.53;2.55;;;;;;;7.72;73.58;96952.69;4918688;29;20498;-73
2024/01/05 10:08:57;;;;;;;5.93;2.90;;;;;;;7.72;73.20;96950.00;4934536;29;20050;-73
2024/01/05 10:11:30;;;;;;;4.60;2.20;;;;;;;7.85;73.39;96952.25;4922645;29;20027;-73
2024/01/05 10:14:03;;;;;;;6.55;2.28;;;;;;;7.95;72.98;96946.97;4921138;29;20138;-74
2024/01/05 10:16:36;;;;;;;4.03;2.67;;;;;;;8.08;72.35;96951.03;4928161;29;20035;-75
2024/01/05 10:19:18;;;;;;;7.70;3.58;;;;;;;8.13;72.21;96948.41;4931060;28;20051;-73
2024/01/05 10:21:46;;;;;;;5.50;3.35;;;;;;;8.18;72.16;96954.59;4922995;29;20193;-73
2024/01/05 10:24:14;;;;;;;7.97;2.90;;;;;;;8.21;71.58;96962.13;4932442;29;20441;-74
2024/01/05 10:26:40;;;;;;;5.72;2.63;;;;;;;8.08;72.35;96943.81;4940546;29;20050;-73
2024/01/05 10:29:13;;;;;;;9.38;2.75;;;;;;;8.03;71.84;96935.72;4947107;29;20031;-74
2024/01/05 10:31:38;;;;;;;7.85;3.35;;;;;;;8.15;72.30;96963.16;4933451;29;20397;-73
2024/01/05 10:34:04;;;;;;;7.97;3.30;;;;;;;8.06;72.50;96966.59;4918695;29;20184;-73
2024/01/05 10:36:29;;;;;;;4.90;3.17;;;;;;;7.94;72.38;96939.16;4938391;29;20046;-73
2024/01/05 10:38:56;;;;;;;6.85;3.05;;;;;;;8.03;72.47;96933.06;4938385;29;20030;-73
2024/01/05 10:41:22;;;;;;;5.00;2.72;;;;;;;8.19;71.92;96955.41;4932242;29;20090;-73
2024/01/05 10:43:47;;;;;;;4.85;3.10;;;;;;;8.31;71.74;96956.84;4936827;29;20106;-73
2024/01/05 10:46:20;;;;;;;5.75;2.80;;;;;;;8.48;71.63;96955.84;4938235;29;20412;-73
2024/01/05 10:48:46;;;;;;;8.57;4.38;;;;;;;8.64;70.93;96954.84;4936263;29;20036;-73
2024/01/05 10:51:12;;;;;;;6.68;3.90;;;;;;;8.63;70.98;96942.53;4949491;29;20030;-73
2024/01/05 10:53:37;;;;;;;11.45;4.50;;;;;;;8.81;70.59;96950.91;4937480;29;20114;-73
2024/01/05 10:56:06;;;;;;;12.57;6.90;;;;;;;8.76;70.83;96952.75;4940851;29;20547;-73
2024/01/05 10:58:32;;;;;;;10.75;4.53;;;;;;;8.66;71.03;96952.75;4922545;29;20035;-73
2024/01/05 11:01:01;;;;;;;10.32;4.00;;;;;;;8.74;71.39;96963.75;4938872;29;20026;-73
2024/01/05 11:03:35;;;;;;;6.40;3.40;;;;;;;8.76;70.96;96953.56;4932421;29;20116;-73
2024/01/05 11:06:05;;;;;;;6.20;2.50;;;;;;;8.71;71.54;96955.41;4931895;29;20042;-73
2024/01/05 11:08:52;;;;;;;6.20;2.78;;;;;;;8.74;70.81;96965.63;4947648;29;20396;-73
2024/01/05 11:11:40;;;;;;;4.03;2.90;;;;;;;8.72;71.04;96957.84;4951863;29;20032;-73
2024/01/05 11:14:24;;;;;;;7.32;2.80;;;;;;;8.74;70.89;96952.22;4928250;29;20054;-73
2024/01/05 11:17:27;;;;;;;5.55;3.17;;;;;;;8.78;71.08;96958.66;4920670;29;20090;-73
2024/01/05 11:20:12;;;;;;;8.35;3.95;;;;;;;8.70;70.79;96959.19;4935873;29;20507;-73
2024/01/05 11:22:39;;;;;;;5.80;3.10;;;;;;;8.67;71.16;96939.03;4951946;29;20027;-73
2024/01/05 11:25:05;;;;;;;5.60;3.58;;;;;;;8.60;71.70;96948.41;4931561;29;20027;-73
2024/01/05 11:27:34;;;;;;;6.53;3.08;;;;;;;8.65;72.08;96957.28;4933102;29;20039;-74
2024/01/05 11:30:00;;;;;;;6.35;3.63;;;;;;;8.43;71.68;96926.31;4928281;29;20066;-73
2024/01/05 11:32:33;;;;;;;7.15;4.10;;;;;;;8.64;71.61;96950.28;4935795;29;20035;-73
2024/01/05 11:34:58;;;;;;;6.45;3.88;;;;;;;8.52;72.75;96946.25;4927491;29;20054;-73